Portada
METAR-TAF:

METAR-TAF

Aeropuertos :

Aeropuerto de Madrid-Cuatro Vientos

Madrid-Cuatro Vientos, España

latitud: 40-23N, longitud: 003-47W, altitud: 690 m

Observación

El informe se hizo hace 3 horas y 5 minutos, a las 19:00 UTC
Viento 4 kt del este-noreste, variando entre norte-noreste y este-sureste
Temperatura 15°C
Humedad 67%
Presión 1012 hPa
Visibilidad 10 km o más
Nubes dispersas a una altura de 4500 ft

METAR: LEVS 171900Z 07004KT 030V110 9999 SCT045 15/09 Q1012

Hora: 23:05 (22:05 UTC)

Pronóstico

El informe se hizo hace 5 horas y 5 minutos, a las 17:00 UTC
Pronóstico válido del 17 a las 18 UTC al 18 a las 03 UTC
Viento 7 kt del noreste
Visibilidad 10 km o más
Nubes dispersas a una altura de 2500 ft
Cielo nuboso a una altura de 3500 ft

TAF: LEVS 171700Z 1718/1803 04007KT 9999 SCT025 BKN035

Observaciones y pronósticos meteorológicos de más de 4000 aeropuertos (mensajes METAR y TAF).

Los puntos amarillos y rojos representan las estaciones disponibles.

Ponga el ratón en el punto deseado para ver el nombre de la estación.

Haga clic para ver las observaciones y los pronósticos meteorológicos.

Para cambiar el mapa : haga clic en los botones verdes con una cruz de color negro para hacer un zoom, en el botón verde con un guión para alejar o en las flechas verdes para mapas adyacentes.


METAR-TAF: